createdAt,value
2023-05-31T00:02:11.215Z,103059.59
2023-05-31T00:04:38.903Z,103062.72
2023-05-31T00:07:07.331Z,103066.53
2023-05-31T00:09:35.017Z,103068.56
2023-05-31T00:12:02.729Z,103053.69
2023-05-31T00:14:30.677Z,103067.41
2023-05-31T00:19:30.133Z,103059.38
2023-05-31T00:21:57.819Z,103062.25
2023-05-31T00:24:25.504Z,103064.66
2023-05-31T00:26:53.119Z,103064.91
2023-05-31T00:29:20.707Z,103063.31
2023-05-31T00:31:48.283Z,103062.41
2023-05-31T00:34:21.945Z,103074.31
2023-05-31T00:36:49.547Z,103065.78
2023-05-31T00:39:17.471Z,103068.09
2023-05-31T00:41:45.068Z,103070.19
2023-05-31T00:44:12.656Z,103074.00
2023-05-31T00:46:42.537Z,103072.38
2023-05-31T00:49:10.396Z,103081.47
2023-05-31T00:51:38.542Z,103076.22
2023-05-31T00:54:06.936Z,103086.94
2023-05-31T00:56:35.049Z,103074.63
2023-05-31T00:59:03.117Z,103081.75
2023-05-31T01:01:34.865Z,103075.53
2023-05-31T01:04:04.319Z,103075.44
2023-05-31T01:06:35.905Z,103072.75
2023-05-31T01:09:06.348Z,103069.09
2023-05-31T01:12:11.018Z,103068.91
2023-05-31T01:14:56.859Z,103070.66
2023-05-31T01:17:35.782Z,103072.25
2023-05-31T01:20:10.193Z,103075.66
2023-05-31T01:23:02.862Z,103068.47
2023-05-31T01:25:47.839Z,103079.28
2023-05-31T01:28:17.884Z,103072.75
2023-05-31T01:30:49.880Z,103071.53
2023-05-31T01:33:19.294Z,103072.13
2023-05-31T01:35:46.897Z,103075.47
2023-05-31T01:38:14.592Z,103079.69
2023-05-31T01:40:42.603Z,103077.78
2023-05-31T01:43:11.736Z,103077.66
2023-05-31T01:45:40.528Z,103079.13
2023-05-31T01:48:11.225Z,103078.06
2023-05-31T01:50:41.306Z,103081.50
2023-05-31T01:53:09.051Z,103083.16
2023-05-31T01:55:36.674Z,103080.09
2023-05-31T01:58:05.964Z,103080.66
2023-05-31T02:00:36.242Z,103080.66
2023-05-31T02:03:06.071Z,103072.59
2023-05-31T02:05:34.070Z,103072.59
2023-05-31T02:08:01.744Z,103084.69
2023-05-31T02:10:29.670Z,103072.69
2023-05-31T02:12:57.539Z,103079.00
2023-05-31T02:15:25.200Z,103075.47
2023-05-31T02:17:52.809Z,103073.75
2023-05-31T02:20:20.764Z,103074.72
2023-05-31T02:22:48.992Z,103072.88
2023-05-31T02:25:19.678Z,103075.56
2023-05-31T02:27:47.269Z,103080.28
2023-05-31T02:30:16.506Z,103086.09
2023-05-31T02:32:45.509Z,103087.56
2023-05-31T02:35:13.377Z,103087.75
2023-05-31T02:37:42.474Z,103084.09
2023-05-31T02:40:10.228Z,103083.91
2023-05-31T02:42:40.968Z,103081.31
2023-05-31T02:45:11.185Z,103087.75
2023-05-31T02:47:40.099Z,103089.81
2023-05-31T02:50:09.244Z,103084.81
2023-05-31T02:52:42.058Z,103081.22
2023-05-31T02:55:21.831Z,103075.66
2023-05-31T02:58:09.765Z,103074.69
2023-05-31T03:00:42.075Z,103081.59
2023-05-31T03:03:11.788Z,103083.13
2023-05-31T03:05:49.754Z,103081.03
2023-05-31T03:08:17.939Z,103078.53
2023-05-31T03:10:45.944Z,103076.03
2023-05-31T03:13:13.702Z,103082.38
2023-05-31T03:15:41.378Z,103077.19
2023-05-31T03:18:09.256Z,103077.06
2023-05-31T03:20:39.855Z,103073.34
2023-05-31T03:23:08.399Z,103073.16
2023-05-31T03:25:36.584Z,103078.41
2023-05-31T03:28:04.914Z,103076.63
2023-05-31T03:30:33.798Z,103080.91
2023-05-31T03:33:04.192Z,103081.63
2023-05-31T03:35:32.425Z,103082.47
2023-05-31T03:38:03.213Z,103085.34
2023-05-31T03:40:31.762Z,103081.63
2023-05-31T03:43:00.113Z,103087.00
2023-05-31T03:45:29.342Z,103085.25
2023-05-31T03:47:57.568Z,103076.44
2023-05-31T03:50:25.227Z,103082.66
2023-05-31T03:52:52.889Z,103078.34
2023-05-31T03:55:21.860Z,103083.03
2023-05-31T03:57:50.202Z,103084.19
2023-05-31T04:00:19.565Z,103075.25
2023-05-31T04:03:04.334Z,103074.13
2023-05-31T04:05:34.846Z,103072.00
2023-05-31T04:08:03.344Z,103074.69
2023-05-31T04:10:33.979Z,103075.56
2023-05-31T04:13:01.857Z,103069.44
2023-05-31T04:15:30.357Z,103080.72
2023-05-31T04:18:01.737Z,103077.97
2023-05-31T04:20:29.840Z,103079.88
2023-05-31T04:22:57.558Z,103085.91
2023-05-31T04:25:26.420Z,103087.56
2023-05-31T04:27:55.925Z,103091.88
2023-05-31T04:30:25.395Z,103096.59
2023-05-31T04:32:54.101Z,103088.34
2023-05-31T04:35:23.430Z,103087.97
2023-05-31T04:37:54.034Z,103082.47
2023-05-31T04:40:21.820Z,103087.00
2023-05-31T04:42:49.661Z,103093.34
2023-05-31T04:45:26.921Z,103089.00
2023-05-31T04:47:56.253Z,103089.00
2023-05-31T04:50:24.271Z,103095.91
2023-05-31T04:52:52.605Z,103094.94
2023-05-31T04:55:20.510Z,103095.72
2023-05-31T04:57:48.183Z,103103.59
2023-05-31T05:00:17.274Z,103097.34
2023-05-31T05:03:19.519Z,103091.88
2023-05-31T05:05:49.100Z,103101.75
2023-05-31T05:08:16.969Z,103103.41
2023-05-31T05:10:44.788Z,103103.66
2023-05-31T05:13:13.727Z,103108.28
2023-05-31T05:15:43.376Z,103107.25
2023-05-31T05:18:12.065Z,103111.53
2023-05-31T05:20:40.509Z,103104.25
2023-05-31T05:23:08.943Z,103110.50
2023-05-31T05:25:37.166Z,103104.25
2023-05-31T05:28:05.013Z,103107.81
2023-05-31T05:30:33.610Z,103107.81
2023-05-31T05:33:01.735Z,103111.28
2023-05-31T05:35:30.363Z,103115.59
2023-05-31T05:38:00.414Z,103111.09
2023-05-31T05:40:28.037Z,103109.34
2023-05-31T05:42:56.426Z,103111.28
2023-05-31T05:45:24.973Z,103102.44
2023-05-31T05:47:57.132Z,103099.28
2023-05-31T05:50:25.631Z,103100.63
2023-05-31T05:52:53.947Z,103102.19
2023-05-31T05:55:22.317Z,103103.03
2023-05-31T05:57:50.056Z,103097.59
2023-05-31T06:00:41.618Z,103104.47
2023-05-31T06:03:09.478Z,103109.75
2023-05-31T06:05:37.433Z,103099.00
2023-05-31T06:08:06.104Z,103100.44
2023-05-31T06:10:33.777Z,103101.88
2023-05-31T06:13:01.513Z,103105.13
2023-05-31T06:15:29.367Z,103102.16
2023-05-31T06:17:57.125Z,103096.56
2023-05-31T06:20:24.805Z,103100.13
2023-05-31T06:22:52.872Z,103099.06
2023-05-31T06:25:21.790Z,103096.19
2023-05-31T06:27:49.565Z,103094.44
2023-05-31T06:30:17.965Z,103094.25
2023-05-31T06:32:47.612Z,103095.09
2023-05-31T06:35:24.072Z,103096.66
2023-05-31T06:37:52.715Z,103100.94
2023-05-31T06:40:20.438Z,103090.41
2023-05-31T06:42:48.323Z,103089.72
2023-05-31T06:45:29.315Z,103091.34
2023-05-31T06:48:15.656Z,103091.94
2023-05-31T06:51:03.398Z,103090.75
2023-05-31T06:53:51.151Z,103084.72
2023-05-31T06:56:25.079Z,103093.38
2023-05-31T06:58:53.024Z,103089.06
2023-05-31T07:01:20.779Z,103092.63
2023-05-31T07:03:48.495Z,103097.91
2023-05-31T07:06:16.477Z,103091.56
2023-05-31T07:08:44.413Z,103090.59
2023-05-31T07:11:30.593Z,103088.56
2023-05-31T07:14:02.669Z,103097.84
2023-05-31T07:16:30.888Z,103096.25
2023-05-31T07:19:00.340Z,103085.28
2023-05-31T07:21:28.085Z,103091.66
2023-05-31T07:23:56.834Z,103088.78
2023-05-31T07:26:24.421Z,103086.88
2023-05-31T07:28:54.790Z,103085.56
2023-05-31T07:31:23.588Z,103078.06
2023-05-31T07:33:51.229Z,103083.44
2023-05-31T07:36:19.561Z,103075.38
2023-05-31T07:38:47.621Z,103076.13
2023-05-31T07:41:16.697Z,103075.72
2023-05-31T07:43:47.026Z,103081.56
2023-05-31T07:46:14.963Z,103075.00
2023-05-31T07:48:42.642Z,103070.47
2023-05-31T07:51:10.446Z,103079.31
2023-05-31T07:53:38.066Z,103070.06
2023-05-31T07:56:05.936Z,103075.44
2023-05-31T07:58:33.536Z,103072.22
2023-05-31T08:01:01.762Z,103061.81
2023-05-31T08:03:29.561Z,103066.78
2023-05-31T08:05:57.749Z,103066.44
2023-05-31T08:08:25.429Z,103068.94
2023-05-31T08:10:53.554Z,103069.50
2023-05-31T08:13:21.486Z,103065.69
2023-05-31T08:15:49.144Z,103074.97
2023-05-31T08:18:17.223Z,103063.00
2023-05-31T08:20:49.597Z,103066.69
2023-05-31T08:23:21.938Z,103066.47
2023-05-31T08:25:50.120Z,103064.41
2023-05-31T08:28:17.749Z,103056.88
2023-05-31T08:30:46.039Z,103062.25
2023-05-31T08:33:13.802Z,103055.09
2023-05-31T08:35:42.187Z,103056.38
2023-05-31T08:38:10.214Z,103060.47
2023-05-31T08:40:38.849Z,103055.94
2023-05-31T08:43:17.507Z,103052.28
2023-05-31T08:45:45.409Z,103056.69
2023-05-31T08:48:27.492Z,103056.16
2023-05-31T08:50:57.562Z,103050.25
2023-05-31T08:53:26.988Z,103048.91
2023-05-31T08:55:55.284Z,103052.03
2023-05-31T08:58:23.674Z,103053.84
2023-05-31T09:00:51.490Z,103046.72
2023-05-31T09:03:19.769Z,103044.78
2023-05-31T09:05:47.566Z,103049.06
2023-05-31T09:08:15.237Z,103044.41
2023-05-31T09:10:42.892Z,103045.69
2023-05-31T09:13:11.564Z,103041.31
2023-05-31T09:15:40.801Z,103033.16
2023-05-31T09:18:20.606Z,103032.31
2023-05-31T09:20:50.022Z,103025.50
2023-05-31T09:23:19.069Z,103021.22
2023-05-31T09:25:52.163Z,103031.69
2023-05-31T09:28:21.496Z,103026.03
2023-05-31T09:31:08.766Z,103027.03
2023-05-31T09:33:43.319Z,103031.63
2023-05-31T09:36:17.087Z,103038.03
2023-05-31T09:38:44.761Z,103033.72
2023-05-31T09:41:22.457Z,103034.84
2023-05-31T09:43:51.251Z,103024.66
2023-05-31T09:46:21.722Z,103018.97
2023-05-31T09:49:02.777Z,103014.06
2023-05-31T09:51:35.486Z,103020.38
2023-05-31T09:54:15.522Z,103017.31
2023-05-31T09:56:45.120Z,103012.63
2023-05-31T09:59:13.140Z,103013.72
2023-05-31T10:01:41.185Z,103012.59
2023-05-31T10:04:09.069Z,103017.69
2023-05-31T10:06:37.598Z,103014.63
2023-05-31T10:09:06.315Z,103015.59
2023-05-31T10:11:36.273Z,103012.13
2023-05-31T10:14:22.067Z,103009.44
2023-05-31T10:17:00.513Z,103007.72
2023-05-31T10:19:36.076Z,102997.53
2023-05-31T10:22:05.619Z,103003.91
2023-05-31T10:24:50.263Z,103010.47
2023-05-31T10:27:22.955Z,103012.75
2023-05-31T10:29:53.610Z,103008.41
2023-05-31T10:32:26.533Z,103000.78
2023-05-31T10:34:54.559Z,103006.03
2023-05-31T10:37:23.269Z,102998.59
2023-05-31T10:40:15.358Z,103005.25
2023-05-31T10:43:01.901Z,103001.66
2023-05-31T10:45:42.475Z,103011.66
2023-05-31T10:48:22.168Z,103007.81
2023-05-31T10:50:57.220Z,103014.53
2023-05-31T10:53:31.178Z,103008.22
2023-05-31T10:56:12.338Z,102996.97
2023-05-31T10:58:58.396Z,103003.72
2023-05-31T11:01:30.416Z,103002.41
2023-05-31T11:03:58.997Z,103001.59
2023-05-31T11:06:28.744Z,103004.75
2023-05-31T11:09:19.308Z,103005.19
2023-05-31T11:11:49.906Z,103004.22
2023-05-31T11:14:17.544Z,103005.53
2023-05-31T11:16:45.210Z,103007.97
2023-05-31T11:19:21.154Z,103002.47
2023-05-31T11:21:49.770Z,102994.91
2023-05-31T11:24:52.787Z,102995.28
2023-05-31T11:27:40.207Z,102993.50
2023-05-31T11:30:14.209Z,102993.97
2023-05-31T11:32:41.944Z,102991.66
2023-05-31T11:35:16.800Z,102984.47
2023-05-31T11:37:44.976Z,102974.69
2023-05-31T11:40:15.705Z,102968.53
2023-05-31T11:42:45.357Z,102971.28
2023-05-31T11:45:21.504Z,102966.81
2023-05-31T11:47:54.739Z,102968.09
2023-05-31T11:50:25.178Z,102968.75
2023-05-31T11:52:59.493Z,102973.00
2023-05-31T11:55:36.539Z,102962.38
2023-05-31T11:58:08.080Z,102952.38
2023-05-31T12:00:36.186Z,102959.41
2023-05-31T12:03:06.925Z,102957.06
2023-05-31T12:05:34.824Z,102954.72
2023-05-31T12:08:02.461Z,102958.34
2023-05-31T12:10:32.465Z,102946.88
2023-05-31T12:13:02.910Z,102954.72
2023-05-31T12:15:32.546Z,102947.94
2023-05-31T12:18:00.638Z,102951.56
2023-05-31T12:20:29.365Z,102949.41
2023-05-31T12:23:17.074Z,102941.72
2023-05-31T12:25:46.532Z,102940.44
2023-05-31T12:28:14.722Z,102939.16
2023-05-31T12:30:49.238Z,102940.88
2023-05-31T12:33:17.314Z,102940.44
2023-05-31T12:35:47.086Z,102934.31
2023-05-31T12:38:15.088Z,102935.00
2023-05-31T12:40:44.220Z,102929.22
2023-05-31T12:43:14.046Z,102929.44
2023-05-31T12:45:42.710Z,102920.94
2023-05-31T12:48:11.928Z,102926.25
2023-05-31T12:50:47.163Z,102914.19
2023-05-31T12:53:16.362Z,102918.25
2023-05-31T12:55:44.177Z,102918.25
2023-05-31T12:58:12.192Z,102911.84
2023-05-31T13:00:39.933Z,102911.03
2023-05-31T13:03:15.695Z,102907.56
2023-05-31T13:05:43.720Z,102915.00
2023-05-31T13:08:11.367Z,102914.19
2023-05-31T13:10:39.038Z,102914.59
2023-05-31T13:13:06.785Z,102901.03
2023-05-31T13:15:34.565Z,102913.06
2023-05-31T13:18:02.285Z,102903.50
2023-05-31T13:20:30.603Z,102909.41
2023-05-31T13:22:59.372Z,102906.78
2023-05-31T13:25:27.639Z,102898.88
2023-05-31T13:27:56.048Z,102905.22
2023-05-31T13:30:23.851Z,102896.63
2023-05-31T13:32:51.884Z,102900.66
2023-05-31T13:35:19.566Z,102898.03
2023-05-31T13:37:47.239Z,102895.66
2023-05-31T13:40:14.953Z,102892.06
2023-05-31T13:42:42.596Z,102890.06
2023-05-31T13:45:10.841Z,102895.13
2023-05-31T13:47:38.687Z,102882.44
2023-05-31T13:50:06.939Z,102889.19
2023-05-31T13:52:34.512Z,102900.16
2023-05-31T13:55:02.180Z,102885.44
2023-05-31T13:57:29.929Z,102892.94
2023-05-31T14:00:00.877Z,102884.63
2023-05-31T14:02:29.453Z,102888.44
2023-05-31T14:04:57.208Z,102886.75
2023-05-31T14:07:24.874Z,102882.44
2023-05-31T14:09:52.527Z,102885.69
2023-05-31T14:12:20.810Z,102876.97
2023-05-31T14:14:48.500Z,102876.03
2023-05-31T14:17:16.288Z,102877.22
2023-05-31T14:19:43.914Z,102884.91
2023-05-31T14:22:11.525Z,102878.25
2023-05-31T14:24:39.145Z,102864.22
2023-05-31T14:27:07.988Z,102874.50
2023-05-31T14:29:35.734Z,102871.25
2023-05-31T14:32:03.952Z,102862.91
2023-05-31T14:34:31.661Z,102872.28
2023-05-31T14:36:59.714Z,102872.91
2023-05-31T14:39:28.121Z,102864.69
2023-05-31T14:41:56.892Z,102869.38
2023-05-31T14:44:24.556Z,102861.41
2023-05-31T14:46:56.348Z,102860.88
2023-05-31T14:49:24.058Z,102865.31
2023-05-31T14:51:51.816Z,102849.59
2023-05-31T14:54:19.706Z,102856.78
2023-05-31T14:56:47.388Z,102857.31
2023-05-31T14:59:15.159Z,102851.47
2023-05-31T15:01:44.244Z,102848.28
2023-05-31T15:04:12.533Z,102841.25
2023-05-31T15:06:41.783Z,102838.59
2023-05-31T15:09:11.690Z,102843.06
2023-05-31T15:11:39.416Z,102838.97
2023-05-31T15:14:08.986Z,102831.41
2023-05-31T15:16:37.161Z,102830.94
2023-05-31T15:19:04.777Z,102825.84
2023-05-31T15:21:32.697Z,102822.03
2023-05-31T15:24:00.467Z,102825.00
2023-05-31T15:26:28.452Z,102833.88
2023-05-31T15:28:56.952Z,102818.16
2023-05-31T15:31:25.542Z,102814.13
2023-05-31T15:33:53.530Z,102814.88
2023-05-31T15:36:21.189Z,102813.91
2023-05-31T15:38:51.480Z,102812.31
2023-05-31T15:41:19.170Z,102821.91
2023-05-31T15:43:46.816Z,102811.91
2023-05-31T15:46:14.570Z,102813.13
2023-05-31T15:48:42.234Z,102817.97
2023-05-31T15:51:09.861Z,102810.66
2023-05-31T15:53:37.523Z,102816.00
2023-05-31T15:56:05.432Z,102808.78
2023-05-31T15:58:33.048Z,102806.00
2023-05-31T16:01:01.044Z,102807.56
2023-05-31T16:03:30.246Z,102801.41
2023-05-31T16:05:58.039Z,102803.72
2023-05-31T16:08:26.250Z,102801.78
2023-05-31T16:10:53.893Z,102800.38
2023-05-31T16:13:21.527Z,102797.34
2023-05-31T16:15:49.183Z,102795.63
2023-05-31T16:18:16.890Z,102791.19
2023-05-31T16:20:44.670Z,102783.34
2023-05-31T16:23:12.360Z,102785.50
2023-05-31T16:25:40.029Z,102791.78
2023-05-31T16:28:07.661Z,102789.66
2023-05-31T16:30:35.417Z,102786.38
2023-05-31T16:33:03.301Z,102785.53
2023-05-31T16:35:31.007Z,102786.13
2023-05-31T16:37:58.658Z,102784.44
2023-05-31T16:40:26.346Z,102785.75
2023-05-31T16:42:55.795Z,102777.28
2023-05-31T16:45:24.781Z,102776.13
2023-05-31T16:47:52.824Z,102780.72
2023-05-31T16:50:20.758Z,102769.88
2023-05-31T16:52:53.012Z,102771.00
2023-05-31T16:55:21.944Z,102764.59
2023-05-31T16:57:49.736Z,102763.16
2023-05-31T17:00:18.007Z,102761.16
2023-05-31T17:02:45.620Z,102767.13
2023-05-31T17:05:14.505Z,102763.31
2023-05-31T17:07:42.105Z,102767.16
2023-05-31T17:10:10.072Z,102769.88
2023-05-31T17:12:38.761Z,102759.47
2023-05-31T17:15:07.473Z,102759.59
2023-05-31T17:17:35.135Z,102766.88
2023-05-31T17:20:04.597Z,102769.59
2023-05-31T17:22:32.275Z,102772.00
2023-05-31T17:24:59.863Z,102766.31
2023-05-31T17:27:27.458Z,102761.88
2023-05-31T17:29:55.120Z,102757.31
2023-05-31T17:32:22.852Z,102757.16
2023-05-31T17:34:50.585Z,102762.75
2023-05-31T17:37:18.218Z,102759.03
2023-05-31T17:39:46.017Z,102752.31
2023-05-31T17:42:13.620Z,102751.06
2023-05-31T17:44:41.348Z,102756.88
2023-05-31T17:47:10.002Z,102756.03
2023-05-31T17:49:37.625Z,102751.34
2023-05-31T17:52:07.342Z,102750.47
2023-05-31T17:54:34.975Z,102753.47
2023-05-31T17:57:02.483Z,102755.75
2023-05-31T17:59:30.613Z,102753.00
2023-05-31T18:01:59.150Z,102743.59
2023-05-31T18:04:27.693Z,102746.16
2023-05-31T18:06:55.546Z,102749.56
2023-05-31T18:09:24.702Z,102743.84
2023-05-31T18:11:53.426Z,102740.13
2023-05-31T18:14:21.076Z,102742.84
2023-05-31T18:16:51.112Z,102742.97
2023-05-31T18:19:19.053Z,102748.06
2023-05-31T18:21:46.970Z,102738.34
2023-05-31T18:24:14.842Z,102748.88
2023-05-31T18:26:42.405Z,102743.88
2023-05-31T18:29:10.755Z,102741.31
2023-05-31T18:31:38.823Z,102746.44
2023-05-31T18:34:06.549Z,102750.97
2023-05-31T18:36:34.171Z,102740.84
2023-05-31T18:39:01.797Z,102749.91
2023-05-31T18:41:29.380Z,102755.41
2023-05-31T18:43:57.016Z,102749.81
2023-05-31T18:46:25.097Z,102753.75
2023-05-31T18:48:52.760Z,102754.50
2023-05-31T18:51:20.425Z,102757.47
2023-05-31T18:53:48.049Z,102764.38
2023-05-31T18:56:16.602Z,102770.47
2023-05-31T18:58:44.921Z,102768.41
2023-05-31T19:01:12.638Z,102775.47
2023-05-31T19:03:40.554Z,102770.59
2023-05-31T19:06:08.785Z,102785.47
2023-05-31T19:08:36.519Z,102779.00
2023-05-31T19:11:04.215Z,102775.25
2023-05-31T19:13:31.879Z,102774.50
2023-05-31T19:15:59.715Z,102784.31
2023-05-31T19:18:27.548Z,102777.06
2023-05-31T19:20:55.232Z,102784.47
2023-05-31T19:23:26.305Z,102794.66
2023-05-31T19:25:54.166Z,102794.44
2023-05-31T19:28:21.731Z,102790.94
2023-05-31T19:30:49.486Z,102787.25
2023-05-31T19:33:19.294Z,102790.19
2023-05-31T19:35:49.152Z,102802.84
2023-05-31T19:38:17.018Z,102807.28
2023-05-31T19:40:44.690Z,102788.75
2023-05-31T19:43:12.381Z,102795.50
2023-05-31T19:45:40.041Z,102799.19
2023-05-31T19:48:10.681Z,102796.84
2023-05-31T19:50:38.441Z,102796.72
2023-05-31T19:53:06.114Z,102799.91
2023-05-31T19:55:33.888Z,102807.63
2023-05-31T19:58:01.628Z,102804.41
2023-05-31T20:00:29.251Z,102802.16
2023-05-31T20:02:56.989Z,102800.16
2023-05-31T20:05:24.953Z,102805.94
2023-05-31T20:07:52.669Z,102808.09
2023-05-31T20:10:20.494Z,102810.31
2023-05-31T20:12:48.112Z,102808.81
2023-05-31T20:15:16.756Z,102816.88
2023-05-31T20:17:44.448Z,102815.41
2023-05-31T20:20:13.244Z,102814.03
2023-05-31T20:22:41.014Z,102818.16
2023-05-31T20:25:08.972Z,102819.16
2023-05-31T20:27:36.584Z,102812.69
2023-05-31T20:30:04.638Z,102814.41
2023-05-31T20:32:32.281Z,102828.84
2023-05-31T20:35:00.210Z,102835.56
2023-05-31T20:37:27.987Z,102827.53
2023-05-31T20:39:55.869Z,102838.25
2023-05-31T20:42:23.537Z,102834.75
2023-05-31T20:44:51.220Z,102831.59
2023-05-31T20:47:19.103Z,102843.59
2023-05-31T20:49:46.828Z,102850.50
2023-05-31T20:52:14.476Z,102843.78
2023-05-31T20:54:44.278Z,102846.19
2023-05-31T20:57:12.373Z,102850.31
2023-05-31T20:59:40.576Z,102845.34
2023-05-31T21:02:08.258Z,102848.47
2023-05-31T21:04:35.869Z,102845.34
2023-05-31T21:07:03.820Z,102847.50
2023-05-31T21:09:31.482Z,102840.81
2023-05-31T21:11:59.763Z,102851.03
2023-05-31T21:14:27.379Z,102856.09
2023-05-31T21:16:55.793Z,102852.56
2023-05-31T21:19:23.424Z,102852.34
2023-05-31T21:21:51.383Z,102853.97
2023-05-31T21:24:19.209Z,102848.59
2023-05-31T21:26:46.860Z,102844.56
2023-05-31T21:29:14.521Z,102840.50
2023-05-31T21:31:42.430Z,102838.25
2023-05-31T21:34:10.178Z,102835.63
2023-05-31T21:36:37.819Z,102842.97
2023-05-31T21:39:05.433Z,102826.84
2023-05-31T21:41:33.113Z,102842.97
2023-05-31T21:44:00.933Z,102840.38
2023-05-31T21:46:28.583Z,102845.88
2023-05-31T21:48:56.650Z,102842.41
2023-05-31T21:51:24.243Z,102836.38
2023-05-31T21:53:51.824Z,102848.00
2023-05-31T21:56:19.531Z,102847.47
2023-05-31T21:58:47.111Z,102843.16
2023-05-31T22:01:14.794Z,102838.06
2023-05-31T22:03:42.730Z,102840.88
2023-05-31T22:06:10.509Z,102841.16
2023-05-31T22:08:38.164Z,102838.91
2023-05-31T22:11:05.948Z,102844.56
2023-05-31T22:13:33.722Z,102843.03
2023-05-31T22:16:01.427Z,102844.44
2023-05-31T22:18:32.204Z,102850.94
2023-05-31T22:21:00.237Z,102850.41
2023-05-31T22:23:28.052Z,102850.69
2023-05-31T22:25:55.984Z,102849.09
2023-05-31T22:28:23.764Z,102846.69
2023-05-31T22:30:52.445Z,102846.88
2023-05-31T22:33:20.165Z,102851.59
2023-05-31T22:35:47.787Z,102853.56
2023-05-31T22:38:15.588Z,102851.81
2023-05-31T22:40:43.290Z,102852.78
2023-05-31T22:43:11.114Z,102852.19
2023-05-31T22:45:38.750Z,102850.69
2023-05-31T22:48:06.467Z,102847.22
2023-05-31T22:50:34.134Z,102851.06
2023-05-31T22:53:01.723Z,102836.31
2023-05-31T22:55:29.381Z,102843.81
2023-05-31T22:57:57.286Z,102847.66
2023-05-31T23:00:24.878Z,102852.28
2023-05-31T23:02:53.376Z,102843.44
2023-05-31T23:05:26.758Z,102843.63
2023-05-31T23:08:02.687Z,102842.31
2023-05-31T23:10:33.815Z,102850.56
2023-05-31T23:13:03.445Z,102854.41
2023-05-31T23:15:37.013Z,102851.97
2023-05-31T23:18:09.025Z,102856.88
2023-05-31T23:20:41.120Z,102857.16
2023-05-31T23:23:09.134Z,102860.03
2023-05-31T23:25:36.880Z,102855.72
2023-05-31T23:28:04.563Z,102853.22
2023-05-31T23:30:32.233Z,102868.34
2023-05-31T23:32:59.877Z,102861.34
2023-05-31T23:35:27.580Z,102855.28
2023-05-31T23:37:55.230Z,102856.44
2023-05-31T23:40:22.806Z,102853.09
2023-05-31T23:42:50.748Z,102854.22
2023-05-31T23:45:18.551Z,102858.06
2023-05-31T23:47:46.730Z,102857.16
2023-05-31T23:50:14.331Z,102859.00
2023-05-31T23:52:42.006Z,102858.25
2023-05-31T23:55:10.158Z,102856.59
2023-05-31T23:57:37.789Z,102858.44
